Time;durP1;ratioP1;P1;durP2;ratioP2;P2;SDS_P1;SDS_P2;PMS_P1;PMS_P2;Temp;Humidity;BMP_temperature;BMP_pressure;BME280_temperature;BME280_humidity;BME280_pressure;Samples;Min_cycle;Max_cycle;Signal;HPM_P1;HPM_P2
2023/08/10 00:01:19;;;;;;;5.32;1.10;;;;;;;;;;5066208;28;20159;-72
2023/08/10 00:03:46;;;;;;;3.13;1.00;;;;;;;;;;5066288;28;20070;-72
2023/08/10 00:06:14;;;;;;;1.77;0.70;;;;;;;;;;5068151;28;20049;-72
2023/08/10 00:08:41;;;;;;;2.47;0.63;;;;;;;;;;5068035;28;20056;-72
2023/08/10 00:11:08;;;;;;;2.35;0.70;;;;;;;;;;5065767;28;20450;-72
2023/08/10 00:13:36;;;;;;;2.25;1.08;;;;;;;;;;5061389;28;20056;-73
2023/08/10 00:16:04;;;;;;;2.22;0.70;;;;;;;;;;5061444;28;20048;-72
2023/08/10 00:18:32;;;;;;;2.70;0.90;;;;;;;;;;5058753;28;20053;-72
2023/08/10 00:20:59;;;;;;;2.15;0.70;;;;;;;;;;5061922;28;20056;-72
2023/08/10 00:23:26;;;;;;;1.90;0.80;;;;;;;;;;5058381;28;20055;-72
2023/08/10 00:25:54;;;;;;;4.28;0.80;;;;;;;;;;5061480;28;20072;-72
2023/08/10 00:28:21;;;;;;;2.63;0.90;;;;;;;;;;5062037;28;20053;-72
2023/08/10 00:30:48;;;;;;;0.90;0.77;;;;;;;;;;5059275;28;20052;-72
2023/08/10 00:33:17;;;;;;;5.03;0.90;;;;;;;;;;5064574;28;20059;-72
2023/08/10 00:35:44;;;;;;;3.13;1.10;;;;;;;;;;5060056;28;20064;-72
2023/08/10 00:38:11;;;;;;;2.60;1.20;;;;;;;;;;5065207;28;20079;-72
2023/08/10 00:40:39;;;;;;;1.55;0.70;;;;;;;;;;5066681;28;20049;-72
2023/08/10 00:43:06;;;;;;;2.40;0.80;;;;;;;;;;5064615;28;20100;-73
2023/08/10 00:45:34;;;;;;;1.48;0.77;;;;;;;;;;5059644;28;20061;-73
2023/08/10 00:48:01;;;;;;;2.83;0.70;;;;;;;;;;5063134;28;20063;-73
2023/08/10 00:50:30;;;;;;;1.85;0.60;;;;;;;;;;5060976;28;20052;-73
2023/08/10 00:52:57;;;;;;;3.90;0.70;;;;;;;;;;5064955;28;20052;-73
2023/08/10 00:55:24;;;;;;;4.22;0.73;;;;;;;;;;5064160;28;20468;-73
2023/08/10 00:57:51;;;;;;;1.65;0.73;;;;;;;;;;5056992;28;20065;-73
2023/08/10 01:00:19;;;;;;;2.45;0.80;;;;;;;;;;5065828;28;20052;-73
2023/08/10 01:02:46;;;;;;;2.20;0.80;;;;;;;;;;5056767;28;20060;-73
2023/08/10 01:05:14;;;;;;;1.83;0.80;;;;;;;;;;5063110;28;20108;-73
2023/08/10 01:07:45;;;;;;;2.65;1.00;;;;;;;;;;5063832;28;20063;-73
2023/08/10 01:10:20;;;;;;;1.27;0.90;;;;;;;;;;5065502;28;20053;-73
2023/08/10 01:12:51;;;;;;;3.47;1.00;;;;;;;;;;5066483;28;20518;-73
2023/08/10 01:15:20;;;;;;;2.15;0.90;;;;;;;;;;5064318;28;20439;-73
2023/08/10 01:17:50;;;;;;;3.97;0.90;;;;;;;;;;5067012;28;20061;-73
2023/08/10 01:20:19;;;;;;;4.15;1.00;;;;;;;;;;5066255;28;20411;-73
2023/08/10 01:22:50;;;;;;;2.83;1.08;;;;;;;;;;5064826;28;20052;-73
2023/08/10 01:25:21;;;;;;;2.38;0.80;;;;;;;;;;5059221;28;20094;-73
2023/08/10 01:27:48;;;;;;;1.98;0.88;;;;;;;;;;5066111;28;20048;-73
2023/08/10 01:30:15;;;;;;;5.75;1.00;;;;;;;;;;5060928;28;20056;-73
2023/08/10 01:32:43;;;;;;;1.80;0.80;;;;;;;;;;5060728;28;20052;-73
2023/08/10 01:35:11;;;;;;;3.67;1.10;;;;;;;;;;5060767;28;20040;-73
2023/08/10 01:37:38;;;;;;;1.48;0.80;;;;;;;;;;5065920;28;20410;-73
2023/08/10 01:40:08;;;;;;;2.00;1.02;;;;;;;;;;5061925;28;20384;-73
2023/08/10 01:42:37;;;;;;;1.15;0.70;;;;;;;;;;5061072;28;20080;-73
2023/08/10 01:45:05;;;;;;;1.95;1.00;;;;;;;;;;5063961;28;20214;-73
2023/08/10 01:47:36;;;;;;;2.50;0.80;;;;;;;;;;5065308;28;20056;-72
2023/08/10 01:50:05;;;;;;;4.30;1.00;;;;;;;;;;5060130;28;20057;-72
2023/08/10 01:52:35;;;;;;;1.13;0.88;;;;;;;;;;5064347;28;20131;-72
2023/08/10 01:55:02;;;;;;;2.20;0.85;;;;;;;;;;5067618;28;20103;-72
2023/08/10 01:57:29;;;;;;;2.08;0.90;;;;;;;;;;5069560;28;20464;-72
2023/08/10 01:59:58;;;;;;;2.17;1.08;;;;;;;;;;5068266;28;20052;-73
2023/08/10 02:02:25;;;;;;;2.90;1.00;;;;;;;;;;5065993;28;20049;-72
2023/08/10 02:04:53;;;;;;;1.83;0.80;;;;;;;;;;5067910;28;20055;-72
2023/08/10 02:07:20;;;;;;;0.98;0.68;;;;;;;;;;5067875;28;20045;-72
2023/08/10 02:09:47;;;;;;;4.25;1.13;;;;;;;;;;5071551;28;20048;-72
2023/08/10 02:12:14;;;;;;;2.75;0.80;;;;;;;;;;5066059;28;20044;-72
2023/08/10 02:14:42;;;;;;;2.60;0.80;;;;;;;;;;5066100;28;20109;-72
2023/08/10 02:17:10;;;;;;;0.88;0.70;;;;;;;;;;5066472;28;20048;-72
2023/08/10 02:19:38;;;;;;;4.50;1.10;;;;;;;;;;5060311;28;20049;-72
2023/08/10 02:22:05;;;;;;;2.88;0.90;;;;;;;;;;5063116;28;20048;-72
2023/08/10 02:24:32;;;;;;;1.25;0.80;;;;;;;;;;5065605;28;20052;-72
2023/08/10 02:27:00;;;;;;;2.00;0.80;;;;;;;;;;5061822;28;20048;-72
2023/08/10 02:29:27;;;;;;;1.75;0.75;;;;;;;;;;5061048;28;20053;-72
2023/08/10 02:31:54;;;;;;;3.80;0.70;;;;;;;;;;5064035;28;20045;-73
2023/08/10 02:34:23;;;;;;;1.73;0.90;;;;;;;;;;5064958;28;20450;-72
2023/08/10 02:36:50;;;;;;;3.55;0.90;;;;;;;;;;5064129;28;20056;-72
2023/08/10 02:39:17;;;;;;;2.25;0.80;;;;;;;;;;5068225;28;20051;-72
2023/08/10 02:41:45;;;;;;;1.85;0.82;;;;;;;;;;5068714;28;20471;-72
2023/08/10 02:44:12;;;;;;;2.17;0.90;;;;;;;;;;5068782;28;20059;-72
2023/08/10 02:46:39;;;;;;;1.55;0.65;;;;;;;;;;5067475;28;20499;-72
2023/08/10 02:49:07;;;;;;;2.00;1.00;;;;;;;;;;5068543;28;20503;-72
2023/08/10 02:51:35;;;;;;;1.75;0.75;;;;;;;;;;5063614;28;20060;-72
2023/08/10 02:54:02;;;;;;;2.45;1.08;;;;;;;;;;5065374;28;20059;-72
2023/08/10 02:56:30;;;;;;;3.28;1.00;;;;;;;;;;5069823;28;20052;-72
2023/08/10 02:58:57;;;;;;;3.63;0.80;;;;;;;;;;5068990;28;20049;-72
2023/08/10 03:01:24;;;;;;;2.90;1.00;;;;;;;;;;5061731;28;20057;-72
2023/08/10 03:03:51;;;;;;;4.47;1.08;;;;;;;;;;5067893;28;20051;-72
2023/08/10 03:06:19;;;;;;;4.05;1.10;;;;;;;;;;5064373;28;20052;-72
2023/08/10 03:08:47;;;;;;;3.08;0.90;;;;;;;;;;5068866;28;20400;-72
2023/08/10 03:11:15;;;;;;;2.67;0.98;;;;;;;;;;5064494;28;20046;-72
2023/08/10 03:13:42;;;;;;;1.52;0.77;;;;;;;;;;5067886;28;20379;-71
2023/08/10 03:16:09;;;;;;;6.53;1.10;;;;;;;;;;5065806;28;20048;-71
2023/08/10 03:18:36;;;;;;;4.10;1.00;;;;;;;;;;5065244;28;20404;-72
2023/08/10 03:21:04;;;;;;;1.95;1.00;;;;;;;;;;5057689;28;20048;-72
2023/08/10 03:23:31;;;;;;;2.25;1.10;;;;;;;;;;5056995;28;20381;-72
2023/08/10 03:26:00;;;;;;;4.72;1.10;;;;;;;;;;5064303;28;20051;-72
2023/08/10 03:28:27;;;;;;;3.92;1.15;;;;;;;;;;5058309;28;20055;-72
2023/08/10 03:30:54;;;;;;;3.13;0.85;;;;;;;;;;5062911;28;20063;-72
2023/08/10 03:33:21;;;;;;;1.67;0.90;;;;;;;;;;5058370;28;20044;-72
2023/08/10 03:35:49;;;;;;;2.63;1.02;;;;;;;;;;5067446;28;20045;-72
2023/08/10 03:38:16;;;;;;;4.75;1.27;;;;;;;;;;5068941;28;20056;-72
2023/08/10 03:40:43;;;;;;;1.88;0.90;;;;;;;;;;5059680;28;20055;-72
2023/08/10 03:43:12;;;;;;;2.65;1.10;;;;;;;;;;5065502;28;20040;-72
2023/08/10 03:45:39;;;;;;;2.85;1.13;;;;;;;;;;5062518;28;20057;-72
2023/08/10 03:48:07;;;;;;;1.23;0.90;;;;;;;;;;5060449;28;20048;-72
2023/08/10 03:50:34;;;;;;;6.07;1.10;;;;;;;;;;5059433;28;20053;-72
2023/08/10 03:53:01;;;;;;;2.33;1.08;;;;;;;;;;5060316;28;20049;-72
2023/08/10 03:55:28;;;;;;;3.03;1.08;;;;;;;;;;5065670;28;20411;-72
2023/08/10 03:57:56;;;;;;;2.38;1.20;;;;;;;;;;5068450;28;20048;-72
2023/08/10 04:00:24;;;;;;;1.80;1.00;;;;;;;;;;5065160;28;20044;-72
2023/08/10 04:02:53;;;;;;;4.82;0.90;;;;;;;;;;5065696;28;20066;-72
2023/08/10 04:05:20;;;;;;;3.75;1.17;;;;;;;;;;5064305;28;20491;-72
2023/08/10 04:07:47;;;;;;;3.58;1.00;;;;;;;;;;5066043;28;20044;-72
2023/08/10 04:10:15;;;;;;;0.88;0.80;;;;;;;;;;5061054;28;20152;-72
2023/08/10 04:12:42;;;;;;;3.72;1.17;;;;;;;;;;5065189;28;20170;-72
2023/08/10 04:15:09;;;;;;;3.33;0.98;;;;;;;;;;5066844;28;20056;-72
2023/08/10 04:17:38;;;;;;;2.33;0.95;;;;;;;;;;5068222;28;20059;-72
2023/08/10 04:20:09;;;;;;;4.65;1.10;;;;;;;;;;5063411;28;20049;-72
2023/08/10 04:22:36;;;;;;;5.45;0.82;;;;;;;;;;5064301;28;20076;-72
2023/08/10 04:25:06;;;;;;;1.20;1.00;;;;;;;;;;5055970;28;20126;-72
2023/08/10 04:27:34;;;;;;;2.60;1.10;;;;;;;;;;5063308;28;20132;-72
2023/08/10 04:30:02;;;;;;;2.55;0.90;;;;;;;;;;5068817;28;20056;-72
2023/08/10 04:32:30;;;;;;;1.63;0.90;;;;;;;;;;5065268;28;20060;-72
2023/08/10 04:34:58;;;;;;;3.47;1.15;;;;;;;;;;5058758;28;20055;-72
2023/08/10 04:37:26;;;;;;;3.97;1.10;;;;;;;;;;5066663;28;20065;-72
2023/08/10 04:39:54;;;;;;;3.95;1.05;;;;;;;;;;5064777;28;20174;-72
2023/08/10 04:42:21;;;;;;;0.90;0.80;;;;;;;;;;5063220;28;20051;-72
2023/08/10 04:44:48;;;;;;;4.07;1.05;;;;;;;;;;5060464;28;20056;-72
2023/08/10 04:47:15;;;;;;;2.72;1.10;;;;;;;;;;5060162;28;20079;-72
2023/08/10 04:49:43;;;;;;;5.07;1.05;;;;;;;;;;5066109;28;20049;-72
2023/08/10 04:52:11;;;;;;;3.78;1.27;;;;;;;;;;5067553;28;20056;-72
2023/08/10 04:54:40;;;;;;;3.75;1.20;;;;;;;;;;5063324;28;20044;-72
2023/08/10 04:57:07;;;;;;;3.58;1.27;;;;;;;;;;5064047;28;20080;-72
2023/08/10 04:59:34;;;;;;;4.22;1.25;;;;;;;;;;5062717;28;20075;-72
2023/08/10 05:02:02;;;;;;;1.92;1.30;;;;;;;;;;5063703;28;20036;-72
2023/08/10 05:04:29;;;;;;;1.42;1.00;;;;;;;;;;5062675;28;20048;-72
2023/08/10 05:06:56;;;;;;;1.67;1.15;;;;;;;;;;5063475;28;20052;-72
2023/08/10 05:09:25;;;;;;;2.08;0.95;;;;;;;;;;5061069;28;20167;-72
2023/08/10 05:11:52;;;;;;;1.83;1.02;;;;;;;;;;5058094;28;20053;-72
2023/08/10 05:14:19;;;;;;;2.53;1.10;;;;;;;;;;5064965;28;20384;-73
2023/08/10 05:16:47;;;;;;;3.75;1.30;;;;;;;;;;5065280;28;20051;-72
2023/08/10 05:19:14;;;;;;;2.80;1.05;;;;;;;;;;5066366;28;20044;-72
2023/08/10 05:21:41;;;;;;;2.05;1.00;;;;;;;;;;5060830;28;20056;-72
2023/08/10 05:24:08;;;;;;;2.78;0.90;;;;;;;;;;5062853;28;20359;-72
2023/08/10 05:26:37;;;;;;;3.53;1.00;;;;;;;;;;5064963;28;20095;-72
2023/08/10 05:29:04;;;;;;;2.58;0.98;;;;;;;;;;5068203;28;20048;-73
2023/08/10 05:31:33;;;;;;;1.90;0.90;;;;;;;;;;5063451;28;20045;-73
2023/08/10 05:34:00;;;;;;;2.22;1.00;;;;;;;;;;5066972;28;20049;-72
2023/08/10 05:36:28;;;;;;;1.80;0.95;;;;;;;;;;5065731;28;20059;-73
2023/08/10 05:38:55;;;;;;;1.73;0.90;;;;;;;;;;5065314;28;20060;-72
2023/08/10 05:41:22;;;;;;;3.55;0.90;;;;;;;;;;5066796;28;20059;-73
2023/08/10 05:43:51;;;;;;;2.40;0.90;;;;;;;;;;5063039;28;20150;-72
2023/08/10 05:46:18;;;;;;;2.10;0.80;;;;;;;;;;5064465;28;20062;-73
2023/08/10 05:48:45;;;;;;;2.20;0.98;;;;;;;;;;5063036;28;20080;-73
2023/08/10 05:51:12;;;;;;;1.45;0.77;;;;;;;;;;5063546;28;20426;-73
2023/08/10 05:53:41;;;;;;;3.08;0.85;;;;;;;;;;5067397;28;20059;-73
2023/08/10 05:56:08;;;;;;;1.05;0.73;;;;;;;;;;5070434;28;20052;-72
2023/08/10 05:58:35;;;;;;;2.25;0.80;;;;;;;;;;5063971;28;20056;-73
2023/08/10 06:01:05;;;;;;;1.60;0.70;;;;;;;;;;5071027;28;20475;-73
2023/08/10 06:03:32;;;;;;;1.25;0.80;;;;;;;;;;5063912;28;20442;-72
2023/08/10 06:06:00;;;;;;;1.55;0.68;;;;;;;;;;5069160;28;20403;-73
2023/08/10 06:08:28;;;;;;;1.85;0.80;;;;;;;;;;5064296;28;20132;-73
2023/08/10 06:10:55;;;;;;;1.45;0.70;;;;;;;;;;5064113;28;20044;-72
2023/08/10 06:13:23;;;;;;;3.58;0.90;;;;;;;;;;5064577;28;20059;-73
2023/08/10 06:15:50;;;;;;;2.05;0.68;;;;;;;;;;5067164;28;20052;-73
2023/08/10 06:18:19;;;;;;;2.97;0.77;;;;;;;;;;5068607;28;20044;-73
2023/08/10 06:20:46;;;;;;;3.30;0.60;;;;;;;;;;5062407;28;20036;-72
2023/08/10 06:26:49;;;;;;;2.47;0.70;;;;;;;;;;4884208;28;20238;-73
2023/08/10 06:29:16;;;;;;;5.05;0.77;;;;;;;;;;5067489;28;20048;-73
2023/08/10 06:31:44;;;;;;;1.00;0.50;;;;;;;;;;5064812;28;20045;-73
2023/08/10 06:34:12;;;;;;;1.15;0.60;;;;;;;;;;5065319;28;20056;-72
2023/08/10 06:36:39;;;;;;;2.13;0.80;;;;;;;;;;5067362;28;20060;-72
2023/08/10 06:39:07;;;;;;;1.73;0.70;;;;;;;;;;5068182;28;20052;-72
2023/08/10 06:41:34;;;;;;;3.85;1.00;;;;;;;;;;5063766;28;20125;-72
2023/08/10 06:44:01;;;;;;;2.92;0.70;;;;;;;;;;5064330;28;20043;-73
2023/08/10 06:46:28;;;;;;;1.38;0.90;;;;;;;;;;5066721;28;20055;-72
2023/08/10 06:48:57;;;;;;;3.22;1.10;;;;;;;;;;5065544;28;20049;-72
2023/08/10 06:51:25;;;;;;;4.35;1.00;;;;;;;;;;5058657;28;20167;-72
2023/08/10 06:53:53;;;;;;;3.05;0.93;;;;;;;;;;5064794;28;20040;-72
2023/08/10 06:56:20;;;;;;;2.47;0.85;;;;;;;;;;5065323;28;20056;-72
2023/08/10 06:58:47;;;;;;;4.40;0.77;;;;;;;;;;5063568;28;20055;-72
2023/08/10 07:01:16;;;;;;;4.03;0.80;;;;;;;;;;5069298;28;20056;-72
2023/08/10 07:03:43;;;;;;;2.05;0.90;;;;;;;;;;5069797;28;20041;-72
2023/08/10 07:06:11;;;;;;;4.50;0.50;;;;;;;;;;5066771;28;20052;-72
2023/08/10 07:08:40;;;;;;;1.88;0.70;;;;;;;;;;5066450;28;20052;-72
2023/08/10 07:11:07;;;;;;;3.92;0.60;;;;;;;;;;5066228;28;20055;-72
2023/08/10 07:13:34;;;;;;;2.88;0.95;;;;;;;;;;5065834;28;20051;-72
2023/08/10 07:16:01;;;;;;;2.30;0.70;;;;;;;;;;5054278;28;20049;-72
2023/08/10 07:18:29;;;;;;;8.38;1.00;;;;;;;;;;5066599;28;20052;-72
2023/08/10 07:20:56;;;;;;;2.17;0.70;;;;;;;;;;5069617;28;20052;-72
2023/08/10 07:23:23;;;;;;;3.60;0.80;;;;;;;;;;5066731;28;20048;-72
2023/08/10 07:25:56;;;;;;;2.53;0.80;;;;;;;;;;5067640;28;20052;-72
2023/08/10 07:28:24;;;;;;;2.47;0.50;;;;;;;;;;5066683;28;20144;-72
2023/08/10 07:30:51;;;;;;;4.25;0.70;;;;;;;;;;5065469;28;20672;-72
2023/08/10 07:33:19;;;;;;;4.57;0.80;;;;;;;;;;5068519;28;20056;-72
2023/08/10 07:35:46;;;;;;;3.10;1.00;;;;;;;;;;5068102;28;20403;-72
2023/08/10 07:38:14;;;;;;;2.78;0.90;;;;;;;;;;5068969;28;20060;-72
2023/08/10 07:40:41;;;;;;;5.22;0.90;;;;;;;;;;5066106;28;20059;-72
2023/08/10 07:43:10;;;;;;;2.00;0.70;;;;;;;;;;5066271;28;20059;-72
2023/08/10 07:45:37;;;;;;;5.10;0.65;;;;;;;;;;5068058;28;20066;-72
2023/08/10 07:48:04;;;;;;;2.72;0.73;;;;;;;;;;5068464;28;20462;-72
2023/08/10 07:50:32;;;;;;;1.85;0.95;;;;;;;;;;5067862;28;20488;-72
2023/08/10 07:52:59;;;;;;;4.78;0.65;;;;;;;;;;5069071;28;20408;-72
2023/08/10 07:55:26;;;;;;;4.47;0.80;;;;;;;;;;5068127;28;20078;-71
2023/08/10 07:57:54;;;;;;;3.13;0.80;;;;;;;;;;5064534;28;20377;-71
2023/08/10 08:00:22;;;;;;;3.13;0.65;;;;;;;;;;5059980;28;20094;-72
2023/08/10 08:02:50;;;;;;;1.65;0.60;;;;;;;;;;5067719;28;20059;-72
2023/08/10 08:05:17;;;;;;;0.85;0.52;;;;;;;;;;5055772;28;20052;-72
2023/08/10 08:07:45;;;;;;;2.38;0.60;;;;;;;;;;5063961;28;20507;-72
2023/08/10 08:10:12;;;;;;;3.63;0.60;;;;;;;;;;5060329;28;20136;-72
2023/08/10 08:12:39;;;;;;;4.63;0.80;;;;;;;;;;5062818;28;20052;-72
2023/08/10 08:15:07;;;;;;;4.72;0.85;;;;;;;;;;5056072;28;20057;-72
2023/08/10 08:17:50;;;;;;;2.28;0.55;;;;;;;;;;5067198;28;20048;-72
2023/08/10 08:20:18;;;;;;;2.95;0.50;;;;;;;;;;5062881;28;20048;-72
2023/08/10 08:22:45;;;;;;;4.32;0.68;;;;;;;;;;5058668;28;20052;-72
2023/08/10 08:25:13;;;;;;;2.88;0.68;;;;;;;;;;5063303;28;20060;-72
2023/08/10 08:27:40;;;;;;;2.05;0.63;;;;;;;;;;5057883;28;20064;-72
2023/08/10 08:30:08;;;;;;;2.65;0.63;;;;;;;;;;5063667;28;20510;-72
2023/08/10 08:32:36;;;;;;;1.05;0.52;;;;;;;;;;5068510;28;20056;-72
2023/08/10 08:35:03;;;;;;;1.63;0.60;;;;;;;;;;5065973;28;20044;-72
2023/08/10 08:37:33;;;;;;;1.50;0.63;;;;;;;;;;5068531;28;20136;-72
2023/08/10 08:40:00;;;;;;;2.53;0.70;;;;;;;;;;5063488;28;20425;-72
2023/08/10 08:42:28;;;;;;;1.00;0.60;;;;;;;;;;5060863;28;20066;-72
2023/08/10 08:44:55;;;;;;;1.52;0.50;;;;;;;;;;5061988;28;20077;-72
2023/08/10 08:47:23;;;;;;;2.88;1.08;;;;;;;;;;5065725;28;20123;-72
2023/08/10 08:49:50;;;;;;;3.03;0.50;;;;;;;;;;5058509;28;20057;-72
2023/08/10 08:52:17;;;;;;;3.38;0.52;;;;;;;;;;5063716;28;20048;-72
2023/08/10 08:54:46;;;;;;;3.75;0.80;;;;;;;;;;5063902;28;20051;-72
2023/08/10 08:57:13;;;;;;;1.80;0.60;;;;;;;;;;5067324;28;20404;-72
2023/08/10 08:59:40;;;;;;;3.13;0.60;;;;;;;;;;5064315;28;20045;-72
2023/08/10 09:02:09;;;;;;;6.35;0.68;;;;;;;;;;5067052;28;20549;-72
2023/08/10 09:04:36;;;;;;;3.30;0.65;;;;;;;;;;5062764;28;20067;-72
2023/08/10 09:07:04;;;;;;;2.25;0.65;;;;;;;;;;5063978;28;20048;-72
2023/08/10 09:09:32;;;;;;;0.75;0.52;;;;;;;;;;5061687;28;20048;-72
2023/08/10 09:12:21;;;;;;;1.33;0.60;;;;;;;;;;5066876;28;20045;-73
2023/08/10 09:15:01;;;;;;;1.77;0.65;;;;;;;;;;5063747;28;20044;-72
2023/08/10 09:17:28;;;;;;;1.33;0.50;;;;;;;;;;5065361;28;20052;-73
2023/08/10 09:19:56;;;;;;;2.45;0.50;;;;;;;;;;5066289;28;20045;-72
2023/08/10 09:22:31;;;;;;;2.17;0.70;;;;;;;;;;5060837;28;20048;-72
2023/08/10 09:24:59;;;;;;;2.33;0.65;;;;;;;;;;5062606;28;20052;-73
2023/08/10 09:27:29;;;;;;;5.05;0.85;;;;;;;;;;5060234;28;20152;-73
2023/08/10 09:29:57;;;;;;;6.25;0.80;;;;;;;;;;5066506;28;20079;-72
2023/08/10 09:32:24;;;;;;;6.63;1.17;;;;;;;;;;5057865;28;20495;-72
2023/08/10 09:34:52;;;;;;;5.40;1.00;;;;;;;;;;5057355;28;20048;-72
2023/08/10 09:37:20;;;;;;;1.98;0.80;;;;;;;;;;5057203;28;20532;-72
2023/08/10 09:39:47;;;;;;;2.45;0.90;;;;;;;;;;5052973;28;20154;-73
2023/08/10 09:42:14;;;;;;;2.03;0.85;;;;;;;;;;5057298;28;20049;-73
2023/08/10 09:44:47;;;;;;;2.40;0.88;;;;;;;;;;5059610;28;20101;-73
2023/08/10 09:47:15;;;;;;;7.93;0.80;;;;;;;;;;5057737;28;20049;-73
2023/08/10 09:49:46;;;;;;;2.05;0.75;;;;;;;;;;5057558;28;20060;-72
2023/08/10 09:52:14;;;;;;;3.45;1.30;;;;;;;;;;5060880;28;20048;-73
2023/08/10 09:54:41;;;;;;;3.30;0.70;;;;;;;;;;5062838;28;20044;-72
2023/08/10 09:57:08;;;;;;;2.90;0.70;;;;;;;;;;5062496;28;20056;-72
2023/08/10 09:59:36;;;;;;;2.45;0.93;;;;;;;;;;5059504;28;20045;-72
2023/08/10 10:02:08;;;;;;;2.85;0.82;;;;;;;;;;5062979;28;20045;-72
2023/08/10 10:04:35;;;;;;;1.10;0.70;;;;;;;;;;5057468;28;20057;-73
2023/08/10 10:07:02;;;;;;;1.42;0.70;;;;;;;;;;5059593;28;20724;-73
2023/08/10 10:09:30;;;;;;;2.55;1.00;;;;;;;;;;5063166;28;20108;-72
2023/08/10 10:11:59;;;;;;;4.35;0.90;;;;;;;;;;5066254;28;20132;-72
2023/08/10 10:14:26;;;;;;;5.85;1.05;;;;;;;;;;5062793;28;20075;-72
2023/08/10 10:16:54;;;;;;;2.55;0.73;;;;;;;;;;5067278;28;20101;-73
2023/08/10 10:19:23;;;;;;;3.15;0.90;;;;;;;;;;5053009;28;20056;-72
2023/08/10 10:21:51;;;;;;;2.60;0.90;;;;;;;;;;5064498;28;20064;-73
2023/08/10 10:24:20;;;;;;;3.40;0.95;;;;;;;;;;5062844;28;20056;-72
2023/08/10 10:26:58;;;;;;;4.32;1.00;;;;;;;;;;5060894;28;20063;-72
2023/08/10 10:29:36;;;;;;;3.30;1.20;;;;;;;;;;5066716;28;20139;-72
2023/08/10 10:32:07;;;;;;;3.20;1.20;;;;;;;;;;5066768;28;20048;-73
2023/08/10 10:34:37;;;;;;;5.95;1.23;;;;;;;;;;5069475;28;20088;-73
2023/08/10 10:37:08;;;;;;;2.28;1.23;;;;;;;;;;5059506;28;20049;-73
2023/08/10 10:39:35;;;;;;;2.63;1.30;;;;;;;;;;5066917;28;20041;-72
2023/08/10 10:42:03;;;;;;;2.10;1.10;;;;;;;;;;5064153;28;20049;-72
2023/08/10 10:44:54;;;;;;;2.83;1.35;;;;;;;;;;5068385;28;20074;-72
2023/08/10 10:47:33;;;;;;;3.13;1.30;;;;;;;;;;5054279;28;20430;-72
2023/08/10 10:50:02;;;;;;;5.22;1.30;;;;;;;;;;5065874;28;20483;-73
2023/08/10 10:52:38;;;;;;;3.50;1.30;;;;;;;;;;5066902;28;20045;-72
2023/08/10 10:55:10;;;;;;;2.55;1.27;;;;;;;;;;5063725;28;20492;-72
2023/08/10 10:57:39;;;;;;;3.13;1.70;;;;;;;;;;5067223;28;20052;-72
2023/08/10 11:00:08;;;;;;;4.38;1.30;;;;;;;;;;5067010;28;20103;-72
2023/08/10 11:02:35;;;;;;;2.22;1.30;;;;;;;;;;5068969;28;20048;-72
2023/08/10 11:05:04;;;;;;;3.65;1.27;;;;;;;;;;5065284;28;20093;-72
2023/08/10 11:07:34;;;;;;;2.80;1.67;;;;;;;;;;5065498;28;20092;-72
2023/08/10 11:10:06;;;;;;;2.92;1.52;;;;;;;;;;5060813;28;20044;-72
2023/08/10 11:12:33;;;;;;;2.63;1.48;;;;;;;;;;5067626;28;20052;-72
2023/08/10 11:15:00;;;;;;;2.42;1.35;;;;;;;;;;5060942;28;20062;-72
2023/08/10 11:17:28;;;;;;;4.22;1.83;;;;;;;;;;5067841;28;20056;-72
2023/08/10 11:19:56;;;;;;;3.95;1.63;;;;;;;;;;5069761;28;20070;-72
2023/08/10 11:22:25;;;;;;;2.22;1.50;;;;;;;;;;5063024;28;20048;-72
2023/08/10 11:24:52;;;;;;;1.90;1.30;;;;;;;;;;5069256;28;20045;-72
2023/08/10 11:27:19;;;;;;;4.18;1.20;;;;;;;;;;5057904;28;20080;-72
2023/08/10 11:29:49;;;;;;;6.45;1.38;;;;;;;;;;5065189;28;20048;-72
2023/08/10 11:32:16;;;;;;;4.07;1.77;;;;;;;;;;5051583;28;20044;-72
2023/08/10 11:34:43;;;;;;;3.50;1.77;;;;;;;;;;5065185;28;20525;-72
2023/08/10 11:37:10;;;;;;;3.40;1.80;;;;;;;;;;5064270;28;20503;-72
2023/08/10 11:39:40;;;;;;;3.90;1.70;;;;;;;;;;5063835;28;20048;-72
2023/08/10 11:42:07;;;;;;;1.95;1.30;;;;;;;;;;5063657;28;20059;-72
2023/08/10 11:44:47;;;;;;;4.32;1.48;;;;;;;;;;5064840;28;20090;-72
2023/08/10 11:47:14;;;;;;;2.63;1.30;;;;;;;;;;5062553;28;20044;-72
2023/08/10 11:49:42;;;;;;;3.63;1.45;;;;;;;;;;5065334;28;20052;-72
2023/08/10 11:52:14;;;;;;;3.03;1.50;;;;;;;;;;5063627;28;20053;-72
2023/08/10 11:54:43;;;;;;;4.75;1.55;;;;;;;;;;5064436;28;20102;-72
2023/08/10 11:57:11;;;;;;;4.38;1.85;;;;;;;;;;5059499;28;20057;-72
2023/08/10 11:59:38;;;;;;;2.38;1.70;;;;;;;;;;5062664;28;20057;-73
2023/08/10 12:02:05;;;;;;;4.57;2.00;;;;;;;;;;5059742;28;20537;-72
2023/08/10 12:04:33;;;;;;;3.75;1.67;;;;;;;;;;5067776;28;20048;-73
2023/08/10 12:07:01;;;;;;;4.28;2.10;;;;;;;;;;5068262;28;20124;-73
2023/08/10 12:09:30;;;;;;;2.70;1.67;;;;;;;;;;5064561;28;20057;-73
2023/08/10 12:11:59;;;;;;;4.35;1.77;;;;;;;;;;5060472;28;20089;-73
2023/08/10 12:14:27;;;;;;;3.78;2.22;;;;;;;;;;5060692;28;20495;-73
2023/08/10 12:16:54;;;;;;;5.45;1.75;;;;;;;;;;5056701;28;20058;-73
2023/08/10 12:19:23;;;;;;;3.17;1.80;;;;;;;;;;5062216;28;20407;-73
2023/08/10 12:21:50;;;;;;;4.78;1.60;;;;;;;;;;5064554;28;20052;-73
2023/08/10 12:24:17;;;;;;;3.63;2.00;;;;;;;;;;5068835;28;20670;-73
2023/08/10 12:26:47;;;;;;;4.07;1.90;;;;;;;;;;5060835;28;20487;-73
2023/08/10 12:29:15;;;;;;;3.95;1.70;;;;;;;;;;5057000;28;20123;-73
2023/08/10 12:31:43;;;;;;;5.35;2.15;;;;;;;;;;5059969;28;20063;-73
2023/08/10 12:34:11;;;;;;;7.93;2.10;;;;;;;;;;5063245;28;20040;-73
2023/08/10 12:36:39;;;;;;;4.50;1.58;;;;;;;;;;5066031;28;20858;-73
2023/08/10 12:39:07;;;;;;;4.53;2.10;;;;;;;;;;5062852;28;20052;-73
2023/08/10 12:41:34;;;;;;;3.78;1.63;;;;;;;;;;5061677;28;20470;-73
2023/08/10 12:44:02;;;;;;;6.07;2.30;;;;;;;;;;5062715;28;20051;-73
2023/08/10 12:46:30;;;;;;;4.10;1.80;;;;;;;;;;5066552;28;20058;-73
2023/08/10 12:48:58;;;;;;;3.20;1.80;;;;;;;;;;5060150;28;20051;-73
2023/08/10 12:55:10;;;;;;;3.92;2.10;;;;;;;;;;5055678;28;20502;-73
2023/08/10 12:57:39;;;;;;;2.90;1.80;;;;;;;;;;5064305;28;20056;-73
2023/08/10 13:00:09;;;;;;;6.35;2.25;;;;;;;;;;5063521;28;20064;-73
2023/08/10 13:02:37;;;;;;;4.60;2.50;;;;;;;;;;5058605;28;20047;-73
2023/08/10 13:05:05;;;;;;;3.92;2.05;;;;;;;;;;5066149;28;20050;-73
2023/08/10 13:07:33;;;;;;;3.85;2.20;;;;;;;;;;5060805;28;20079;-73
2023/08/10 13:10:01;;;;;;;4.47;2.30;;;;;;;;;;5064863;28;20067;-73
2023/08/10 13:12:28;;;;;;;5.95;2.45;;;;;;;;;;5065290;28;20558;-73
2023/08/10 13:14:55;;;;;;;8.52;2.88;;;;;;;;;;5067386;28;20065;-73
2023/08/10 13:17:22;;;;;;;4.90;2.55;;;;;;;;;;5064823;28;20044;-73
2023/08/10 13:19:51;;;;;;;4.22;2.40;;;;;;;;;;5065805;28;20048;-73
2023/08/10 13:22:19;;;;;;;3.35;2.30;;;;;;;;;;5061846;28;20118;-72
2023/08/10 13:24:46;;;;;;;4.47;2.90;;;;;;;;;;5065003;28;20484;-73
2023/08/10 13:27:13;;;;;;;11.63;3.80;;;;;;;;;;5067041;28;20483;-73
2023/08/10 13:29:41;;;;;;;10.05;3.50;;;;;;;;;;5064570;28;20535;-72
2023/08/10 13:32:08;;;;;;;5.30;3.20;;;;;;;;;;5062214;28;20060;-73
2023/08/10 13:34:36;;;;;;;9.65;3.50;;;;;;;;;;5064484;28;20056;-72
2023/08/10 13:37:04;;;;;;;7.35;3.88;;;;;;;;;;5064659;28;20049;-73
2023/08/10 13:39:32;;;;;;;6.28;3.38;;;;;;;;;;5059796;28;20053;-72
2023/08/10 13:42:00;;;;;;;7.20;3.33;;;;;;;;;;5064395;28;20055;-72
2023/08/10 13:44:27;;;;;;;5.70;2.70;;;;;;;;;;5065156;28;20051;-72
2023/08/10 13:46:54;;;;;;;4.25;2.80;;;;;;;;;;5070318;28;20514;-72
2023/08/10 13:49:22;;;;;;;6.25;3.17;;;;;;;;;;5067390;28;20548;-72
2023/08/10 13:51:50;;;;;;;6.13;3.17;;;;;;;;;;5064747;28;20511;-73
2023/08/10 13:54:18;;;;;;;5.25;3.17;;;;;;;;;;5069735;28;20079;-73
2023/08/10 13:56:59;;;;;;;9.27;3.55;;;;;;;;;;5069724;28;20044;-73
2023/08/10 13:59:26;;;;;;;6.82;3.00;;;;;;;;;;5063913;28;20076;-73
2023/08/10 14:01:53;;;;;;;5.30;3.03;;;;;;;;;;5068501;28;20979;-73
2023/08/10 14:04:21;;;;;;;7.22;3.00;;;;;;;;;;5070652;28;20411;-73
2023/08/10 14:06:48;;;;;;;6.65;3.50;;;;;;;;;;5065752;28;20049;-73
2023/08/10 14:09:16;;;;;;;5.60;2.70;;;;;;;;;;5056107;28;20045;-72
2023/08/10 14:11:45;;;;;;;5.03;2.85;;;;;;;;;;5067928;28;20076;-72
2023/08/10 14:14:14;;;;;;;5.20;3.08;;;;;;;;;;5066325;28;20065;-72
2023/08/10 14:16:41;;;;;;;6.57;3.50;;;;;;;;;;5062733;28;20052;-72
2023/08/10 14:19:09;;;;;;;8.73;3.90;;;;;;;;;;5069585;28;20391;-72
2023/08/10 14:21:36;;;;;;;7.28;3.10;;;;;;;;;;5066860;28;20487;-72
2023/08/10 14:24:03;;;;;;;7.93;2.92;;;;;;;;;;5069209;28;20060;-72
2023/08/10 14:26:30;;;;;;;5.57;2.97;;;;;;;;;;5067246;28;20121;-73
2023/08/10 14:28:59;;;;;;;4.47;2.90;;;;;;;;;;5069692;28;20056;-72
2023/08/10 14:31:26;;;;;;;5.80;3.10;;;;;;;;;;5069127;28;20043;-72
2023/08/10 14:33:54;;;;;;;4.93;2.83;;;;;;;;;;5063162;28;20044;-73
2023/08/10 14:36:21;;;;;;;4.38;2.65;;;;;;;;;;5069216;28;20080;-72
2023/08/10 14:38:48;;;;;;;7.93;2.90;;;;;;;;;;5066681;28;20538;-72
2023/08/10 14:41:15;;;;;;;9.52;3.00;;;;;;;;;;5069081;28;20048;-72
2023/08/10 14:43:43;;;;;;;8.70;2.92;;;;;;;;;;5062584;28;20084;-72
2023/08/10 14:46:11;;;;;;;4.85;3.13;;;;;;;;;;5066718;28;20048;-72
2023/08/10 14:48:39;;;;;;;5.40;2.72;;;;;;;;;;5064299;28;20118;-72
2023/08/10 14:51:06;;;;;;;6.05;3.35;;;;;;;;;;5066420;28;20056;-72
2023/08/10 14:53:35;;;;;;;5.30;2.53;;;;;;;;;;5067947;28;20055;-72
2023/08/10 14:56:02;;;;;;;5.85;2.40;;;;;;;;;;5068752;28;20044;-72